Thursday, August 16, 2018, 9:00 AM CDT
Back to Local

KIGQ, Chicago, Lansing Municipal Airport

Location: Chicago Heights, IL, United States Lat: 41.54
Local Time: 9:00 AM CDT (14:00 GMT) Lon: -87.532
Time Zone: US/Central Elev: 616 ft

Show me the last for .
Show Decoded

2018-08-16 08:35 METAR KIGQ 161335Z AUTO 00000KT 10SM SCT008 BKN022 OVC036 23/21 A2996 RMK AO2
                 T02310206 =
2018-08-16 08:15 METAR KIGQ 161315Z AUTO 00000KT 7SM SCT013 OVC020 23/21 A2996 RMK AO2 T02250205
                 =
2018-08-16 07:55 METAR KIGQ 161255Z AUTO 00000KT 7SM OVC013 22/21 A2996 RMK AO2 T02210205 =
2018-08-16 07:35 METAR KIGQ 161235Z AUTO 00000KT 7SM OVC013 22/20 A2996 RMK AO2 T02170203 =
2018-08-16 07:15 METAR KIGQ 161215Z AUTO 00000KT 5SM BR OVC013 22/20 A2996 RMK AO2 T02160204 =
2018-08-16 06:55 METAR KIGQ 161155Z AUTO 00000KT 5SM BR SCT013 21/20 A2995 RMK AO2 T02110201
                 10216 20210 =
2018-08-16 06:35 METAR KIGQ 161135Z AUTO 00000KT 5SM BR SCT021 21/20 A2995 RMK AO2 T02100199 =
2018-08-16 06:15 METAR KIGQ 161115Z AUTO 00000KT 7SM SCT009 BKN014 BKN021 21/20 A2994 RMK AO2
                 T02130200 =
2018-08-16 05:55 METAR KIGQ 161055Z AUTO 00000KT 7SM OVC009 22/20 A2994 RMK AO2 T02150201 =
2018-08-16 05:35 METAR KIGQ 161035Z AUTO 00000KT 7SM OVC009 22/20 A2993 RMK AO2 T02150201 =
2018-08-16 05:15 METAR KIGQ 161015Z AUTO 13003KT 10SM OVC009 22/20 A2993 RMK AO2 T02150202 =
2018-08-16 04:55 METAR KIGQ 160955Z AUTO 00000KT 7SM OVC009 22/20 A2992 RMK AO2 T02150202 =
2018-08-16 04:35 METAR KIGQ 160935Z AUTO 00000KT 7SM OVC009 22/20 A2992 RMK AO2 T02150202 =
2018-08-16 04:15 METAR KIGQ 160915Z AUTO 00000KT 7SM OVC009 21/20 A2993 RMK AO2 T02130201 =
2018-08-16 03:55 METAR KIGQ 160855Z AUTO 00000KT 7SM OVC009 21/20 A2992 RMK AO2 LTG DSNT S
                 T02120200 =
2018-08-16 03:35 METAR KIGQ 160835Z AUTO 14003KT 7SM BKN009 BKN021 21/20 A2992 RMK AO2 T02120200
                 =
2018-08-16 03:15 METAR KIGQ 160815Z AUTO 00000KT 7SM BKN007 BKN021 21/20 A2992 RMK AO2 T02120200
                 =
2018-08-16 02:55 METAR KIGQ 160755Z AUTO 00000KT 10SM BKN007 BKN019 21/20 A2993 RMK AO2 T02130200
                 =
2018-08-16 02:35 METAR KIGQ 160735Z AUTO 11003KT 10SM CLR 21/20 A2993 RMK AO2 T02110199 =
2018-08-16 02:15 METAR KIGQ 160715Z AUTO 09003KT 10SM SCT009 SCT022 BKN034 21/20 A2992 RMK AO2
                 T02130198 =
2018-08-16 01:55 METAR KIGQ 160655Z AUTO 12003KT 10SM SCT009 BKN021 OVC032 22/20 A2992 RMK AO2
                 T02150198 =
2018-08-16 01:35 METAR KIGQ 160635Z AUTO 12003KT 10SM SCT009 BKN019 OVC024 22/20 A2993 RMK AO2
                 T02160200 =
2018-08-16 01:15 METAR KIGQ 160615Z AUTO 00000KT 10SM OVC009 22/20 A2994 RMK AO2 T02160199 =
2018-08-16 00:55 METAR KIGQ 160555Z AUTO 00000KT 10SM OVC011 22/20 A2994 RMK AO2 T02150197 10255
                 20213 402910208 =
2018-08-16 00:35 METAR KIGQ 160535Z AUTO 11003KT 10SM OVC013 22/20 A2994 RMK AO2 T02150196 =
2018-08-16 00:15 METAR KIGQ 160515Z AUTO 13004KT 10SM BKN013 BKN022 22/20 A2995 RMK AO2 T02150196
                 =
2018-08-15 23:55 METAR KIGQ 160455Z AUTO 12003KT 10SM SCT013 BKN022 22/20 A2994 RMK AO2 T02150196
                 =
2018-08-15 23:35 METAR KIGQ 160435Z AUTO 13003KT 10SM OVC020 22/20 A2994 RMK AO2 T02150196 =
2018-08-15 23:15 METAR KIGQ 160415Z AUTO 14004KT 10SM BKN018 22/20 A2994 RMK AO2 T02160195 =
2018-08-15 22:55 METAR KIGQ 160355Z AUTO 14004KT 10SM BKN018 22/20 A2994 RMK AO2 T02170195 =
2018-08-15 22:35 METAR KIGQ 160335Z AUTO 15003KT 10SM CLR 22/19 A2994 RMK AO2 T02180193 =
2018-08-15 22:15 METAR KIGQ 160315Z AUTO 15004KT 10SM CLR 22/19 A2994 RMK AO2 T02200192 =
2018-08-15 21:55 METAR KIGQ 160255Z AUTO 16006KT 10SM CLR 22/19 A2994 RMK AO2 T02200191 =
2018-08-15 21:35 METAR KIGQ 160235Z AUTO 15003KT 10SM CLR 22/19 A2994 RMK AO2 T02210191 =
2018-08-15 21:15 METAR KIGQ 160215Z AUTO 17007KT 10SM CLR 23/19 A2994 RMK AO2 T02250190 =
2018-08-15 20:55 METAR KIGQ 160155Z AUTO 17007KT 10SM CLR 23/19 A2994 RMK AO2 T02250190 =
2018-08-15 20:35 METAR KIGQ 160135Z AUTO 17007KT 10SM CLR 23/19 A2994 RMK AO2 LTG DSNT NW
                 T02270188 =
2018-08-15 20:15 METAR KIGQ 160115Z AUTO 17006KT 10SM SCT110 23/19 A2994 RMK AO2 LTG DSNT NW
                 T02310186 =
2018-08-15 19:55 METAR KIGQ 160055Z AUTO 16011KT 10SM SCT047 SCT055 BKN110 24/19 A2994 RMK AO2
                 T02380185 =
2018-08-15 19:35 METAR KIGQ 160035Z AUTO 18008KT 10SM BKN041 OVC049 24/19 A2994 RMK AO2 T02410192
                 =
2018-08-15 19:15 METAR KIGQ 160015Z AUTO 19010KT 10SM SCT024 BKN041 OVC050 25/19 A2993 RMK AO2
                 LTG DSNT N T02500193 =
2018-08-15 18:55 METAR KIGQ 152355Z AUTO 17010KT 10SM SCT024 BKN041 BKN050 26/20 A2992 RMK AO2
                 LTG DSNT N AND S T02560198 10291 20256 =
2018-08-15 18:35 METAR KIGQ 152335Z AUTO 17010KT 10SM SCT024 SCT033 BKN039 26/20 A2992 RMK AO2
                 LTG DSNT W AND NW T02590199 =
2018-08-15 18:15 METAR KIGQ 152315Z AUTO 18014KT 10SM SCT024 SCT039 26/20 A2991 RMK AO2 LTG DSNT
                 W T02610200 =
2018-08-15 17:55 METAR KIGQ 152255Z AUTO 18010KT 10SM SCT026 26/20 A2991 RMK AO2 T02610200 =
2018-08-15 17:35 METAR KIGQ 152235Z AUTO 18010KT 10SM SCT026 SCT034 SCT047 26/20 A2991 RMK AO2
                 T02610197 =
2018-08-15 17:15 METAR KIGQ 152215Z AUTO 16013KT 10SM BKN028 BKN036 BKN046 26/20 A2991 RMK AO2
                 T02640199 =
2018-08-15 16:55 METAR KIGQ 152155Z AUTO 19013KT 10SM BKN030 OVC036 28/20 A2991 RMK AO2 T02810201
                 =
2018-08-15 16:35 METAR KIGQ 152135Z AUTO 15010KT 10SM OVC030 29/20 A2990 RMK AO2 T02870201 =
2018-08-15 16:15 METAR KIGQ 152115Z AUTO 15008KT 10SM BKN028 OVC036 28/20 A2991 RMK AO2 T02840203
                 =
2018-08-15 15:55 METAR KIGQ 152055Z AUTO 15010KT 10SM BKN025 BKN030 27/21 A2991 RMK AO2 T02720205
                 =
2018-08-15 15:35 METAR KIGQ 152035Z AUTO 15009KT 10SM BKN025 BKN030 27/21 A2992 RMK AO2 T02740205
                 =
2018-08-15 15:15 METAR KIGQ 152015Z AUTO 15007KT 050V250 10SM SCT025 BKN036 27/20 A2993 RMK AO2
                 T02720203 =
2018-08-15 14:55 METAR KIGQ 151955Z AUTO 15010KT 10SM SCT025 OVC034 27/20 A2993 RMK AO2 T02660199
                 =
2018-08-15 14:35 METAR KIGQ 151935Z AUTO 16008KT 020V190 10SM BKN025 OVC032 27/20 A2994 RMK AO2
                 T02660196 =
2018-08-15 14:15 METAR KIGQ 151915Z AUTO 16009KT 10SM SCT025 BKN032 27/20 A2994 RMK AO2 T02670196
                 =
2018-08-15 13:55 METAR KIGQ 151855Z AUTO 17010KT 10SM BKN025 BKN032 28/20 A2994 RMK AO2 LTG DSNT
                 W T02790200 =
2018-08-15 13:35 METAR KIGQ 151835Z AUTO 18012KT 10SM BKN027 BKN035 28/20 A2995 RMK AO2 T02760201
                 =
2018-08-15 13:15 METAR KIGQ 151815Z AUTO 18013G16KT 10SM BKN027 OVC031 27/20 A2995 RMK AO2
                 T02690199 =
2018-08-15 12:55 METAR KIGQ 151755Z AUTO 20006KT 10SM BKN027 OVC035 26/21 A2995 RMK AO2 T02590208
                 10271 20218 =
2018-08-15 12:35 METAR KIGQ 151735Z AUTO 15003KT 10SM SCT030 BKN050 OVC065 26/20 A2995 RMK AO2
                 T02640195 =
2018-08-15 12:15 METAR KIGQ 151715Z AUTO 18003KT 10SM SCT055 SCT070 SCT090 27/20 A2996 RMK AO2
                 T02680197 =
2018-08-15 11:55 METAR KIGQ 151655Z AUTO 17004KT 10SM BKN090 27/20 A2996 RMK AO2 T02700201 =
2018-08-15 11:35 METAR KIGQ 151635Z AUTO 16005KT 10SM SCT090 27/20 A2996 RMK AO2 LTG DSNT W
                 T02660198 =
2018-08-15 11:15 METAR KIGQ 151615Z AUTO 11007KT 10SM CLR 27/20 A2997 RMK AO2 T02670204 =
2018-08-15 10:55 METAR KIGQ 151555Z AUTO 14006KT 10SM CLR 26/20 A2997 RMK AO2 LTG DSNT W
                 T02590198 =
2018-08-15 10:35 METAR KIGQ 151535Z AUTO 13007KT 030V200 10SM CLR 26/20 A2997 RMK AO2 T02620200 =
2018-08-15 10:15 METAR KIGQ 151515Z AUTO 00000KT 10SM CLR 26/20 A2996 RMK AO2 T02550196 =
2018-08-15 09:55 METAR KIGQ 151455Z AUTO 12003KT 10SM CLR 25/20 A2996 RMK AO2 T02500196 =
2018-08-15 09:35 METAR KIGQ 151435Z AUTO 00000KT 10SM SCT090 25/20 A2996 RMK AO2 T02510195 =
2018-08-15 09:15 METAR KIGQ 151415Z AUTO 12005KT 10SM SCT090 25/19 A2997 RMK AO2 T02470194 =

Support USWX by starting your Amazon purchase here.